sensor_id;sensor_type;location;lat;lon;timestamp;P1;durP1;ratioP1;P2;durP2;ratioP2
35518;SDS011;21627;48.216;16.482;2023-05-07T00:00:11;6.05;;;2.60;;
35518;SDS011;21627;48.216;16.482;2023-05-07T00:02:42;3.28;;;2.58;;
35518;SDS011;21627;48.216;16.482;2023-05-07T00:05:11;4.25;;;2.55;;
35518;SDS011;21627;48.216;16.482;2023-05-07T00:07:39;3.90;;;2.80;;
35518;SDS011;21627;48.216;16.482;2023-05-07T00:10:07;6.95;;;2.47;;
35518;SDS011;21627;48.216;16.482;2023-05-07T00:12:35;8.32;;;3.42;;
35518;SDS011;21627;48.216;16.482;2023-05-07T00:15:02;4.65;;;3.15;;
35518;SDS011;21627;48.216;16.482;2023-05-07T00:17:32;4.72;;;3.15;;
35518;SDS011;21627;48.216;16.482;2023-05-07T00:19:59;8.90;;;3.05;;
35518;SDS011;21627;48.216;16.482;2023-05-07T00:22:26;4.22;;;2.92;;
35518;SDS011;21627;48.216;16.482;2023-05-07T00:24:56;5.80;;;3.58;;
35518;SDS011;21627;48.216;16.482;2023-05-07T00:27:23;4.10;;;3.10;;
35518;SDS011;21627;48.216;16.482;2023-05-07T00:29:51;5.10;;;3.25;;
35518;SDS011;21627;48.216;16.482;2023-05-07T00:32:18;8.95;;;3.42;;
35518;SDS011;21627;48.216;16.482;2023-05-07T00:34:45;7.55;;;3.30;;
35518;SDS011;21627;48.216;16.482;2023-05-07T00:37:13;5.22;;;3.25;;
35518;SDS011;21627;48.216;16.482;2023-05-07T00:39:40;4.80;;;3.03;;
35518;SDS011;21627;48.216;16.482;2023-05-07T00:42:07;4.28;;;2.75;;
35518;SDS011;21627;48.216;16.482;2023-05-07T00:44:34;5.25;;;3.50;;
35518;SDS011;21627;48.216;16.482;2023-05-07T00:47:01;4.72;;;3.05;;
35518;SDS011;21627;48.216;16.482;2023-05-07T00:49:38;7.90;;;3.40;;
35518;SDS011;21627;48.216;16.482;2023-05-07T00:52:13;5.13;;;3.45;;
35518;SDS011;21627;48.216;16.482;2023-05-07T00:54:42;3.25;;;2.58;;
35518;SDS011;21627;48.216;16.482;2023-05-07T00:57:09;4.95;;;3.10;;
35518;SDS011;21627;48.216;16.482;2023-05-07T00:59:37;4.65;;;3.30;;
35518;SDS011;21627;48.216;16.482;2023-05-07T01:02:06;6.75;;;3.10;;
35518;SDS011;21627;48.216;16.482;2023-05-07T01:04:34;5.88;;;3.65;;
35518;SDS011;21627;48.216;16.482;2023-05-07T01:07:02;4.82;;;3.38;;
35518;SDS011;21627;48.216;16.482;2023-05-07T01:09:29;3.78;;;2.90;;
35518;SDS011;21627;48.216;16.482;2023-05-07T01:11:57;4.35;;;3.30;;
35518;SDS011;21627;48.216;16.482;2023-05-07T01:14:25;3.95;;;3.08;;
35518;SDS011;21627;48.216;16.482;2023-05-07T01:16:52;10.27;;;3.30;;
35518;SDS011;21627;48.216;16.482;2023-05-07T01:19:20;5.03;;;3.28;;
35518;SDS011;21627;48.216;16.482;2023-05-07T01:21:48;5.18;;;2.78;;
35518;SDS011;21627;48.216;16.482;2023-05-07T01:24:17;4.70;;;2.70;;
35518;SDS011;21627;48.216;16.482;2023-05-07T01:26:44;5.20;;;3.17;;
35518;SDS011;21627;48.216;16.482;2023-05-07T01:29:12;5.25;;;3.05;;
35518;SDS011;21627;48.216;16.482;2023-05-07T01:31:39;3.75;;;2.90;;
35518;SDS011;21627;48.216;16.482;2023-05-07T01:34:09;4.78;;;3.08;;
35518;SDS011;21627;48.216;16.482;2023-05-07T01:36:39;3.70;;;2.90;;
35518;SDS011;21627;48.216;16.482;2023-05-07T01:39:09;4.10;;;2.95;;
35518;SDS011;21627;48.216;16.482;2023-05-07T01:41:36;2.90;;;2.50;;
35518;SDS011;21627;48.216;16.482;2023-05-07T01:44:04;5.90;;;2.90;;
35518;SDS011;21627;48.216;16.482;2023-05-07T01:46:32;6.13;;;2.80;;
35518;SDS011;21627;48.216;16.482;2023-05-07T01:49:00;4.07;;;2.58;;
35518;SDS011;21627;48.216;16.482;2023-05-07T01:51:27;4.10;;;2.30;;
35518;SDS011;21627;48.216;16.482;2023-05-07T01:53:54;4.25;;;2.22;;
35518;SDS011;21627;48.216;16.482;2023-05-07T01:56:22;4.03;;;2.55;;
35518;SDS011;21627;48.216;16.482;2023-05-07T01:58:50;8.38;;;2.45;;
35518;SDS011;21627;48.216;16.482;2023-05-07T02:01:18;6.53;;;2.40;;
35518;SDS011;21627;48.216;16.482;2023-05-07T02:03:45;4.63;;;2.78;;
35518;SDS011;21627;48.216;16.482;2023-05-07T02:06:13;7.13;;;2.40;;
35518;SDS011;21627;48.216;16.482;2023-05-07T02:08:40;4.25;;;2.60;;
35518;SDS011;21627;48.216;16.482;2023-05-07T02:11:07;3.63;;;2.03;;
35518;SDS011;21627;48.216;16.482;2023-05-07T02:13:34;3.20;;;1.95;;
35518;SDS011;21627;48.216;16.482;2023-05-07T02:16:01;7.95;;;2.40;;
35518;SDS011;21627;48.216;16.482;2023-05-07T02:18:29;2.63;;;2.33;;
35518;SDS011;21627;48.216;16.482;2023-05-07T02:20:56;5.03;;;2.00;;
35518;SDS011;21627;48.216;16.482;2023-05-07T02:23:23;4.75;;;2.88;;
35518;SDS011;21627;48.216;16.482;2023-05-07T02:25:51;3.08;;;2.35;;
35518;SDS011;21627;48.216;16.482;2023-05-07T02:28:18;3.30;;;2.40;;
35518;SDS011;21627;48.216;16.482;2023-05-07T02:30:45;4.03;;;2.47;;
35518;SDS011;21627;48.216;16.482;2023-05-07T02:33:12;3.30;;;2.70;;
35518;SDS011;21627;48.216;16.482;2023-05-07T02:35:40;4.50;;;2.55;;
35518;SDS011;21627;48.216;16.482;2023-05-07T02:38:07;4.72;;;3.22;;
35518;SDS011;21627;48.216;16.482;2023-05-07T02:40:36;4.25;;;2.83;;
35518;SDS011;21627;48.216;16.482;2023-05-07T02:43:06;3.83;;;2.67;;
35518;SDS011;21627;48.216;16.482;2023-05-07T02:45:34;6.07;;;2.90;;
35518;SDS011;21627;48.216;16.482;2023-05-07T02:48:02;5.70;;;3.08;;
35518;SDS011;21627;48.216;16.482;2023-05-07T02:50:31;5.18;;;3.30;;
35518;SDS011;21627;48.216;16.482;2023-05-07T02:52:59;4.53;;;3.47;;
35518;SDS011;21627;48.216;16.482;2023-05-07T02:55:26;3.63;;;2.97;;
35518;SDS011;21627;48.216;16.482;2023-05-07T02:57:53;7.53;;;3.38;;
35518;SDS011;21627;48.216;16.482;2023-05-07T03:00:20;4.25;;;3.38;;
35518;SDS011;21627;48.216;16.482;2023-05-07T03:02:48;7.78;;;3.67;;
35518;SDS011;21627;48.216;16.482;2023-05-07T03:05:15;5.85;;;3.60;;
35518;SDS011;21627;48.216;16.482;2023-05-07T03:07:42;4.43;;;3.33;;
35518;SDS011;21627;48.216;16.482;2023-05-07T03:10:11;6.70;;;4.38;;
35518;SDS011;21627;48.216;16.482;2023-05-07T03:12:38;6.85;;;4.13;;
35518;SDS011;21627;48.216;16.482;2023-05-07T03:15:06;4.47;;;4.00;;
35518;SDS011;21627;48.216;16.482;2023-05-07T03:17:34;7.05;;;3.95;;
35518;SDS011;21627;48.216;16.482;2023-05-07T03:20:01;7.45;;;4.22;;
35518;SDS011;21627;48.216;16.482;2023-05-07T03:22:29;5.65;;;4.15;;
35518;SDS011;21627;48.216;16.482;2023-05-07T03:24:56;6.93;;;4.55;;
35518;SDS011;21627;48.216;16.482;2023-05-07T03:27:23;8.82;;;4.75;;
35518;SDS011;21627;48.216;16.482;2023-05-07T03:29:50;7.30;;;5.38;;
35518;SDS011;21627;48.216;16.482;2023-05-07T03:32:17;7.05;;;5.10;;
35518;SDS011;21627;48.216;16.482;2023-05-07T03:34:44;8.07;;;6.10;;
35518;SDS011;21627;48.216;16.482;2023-05-07T03:37:11;8.23;;;5.95;;
35518;SDS011;21627;48.216;16.482;2023-05-07T03:39:38;8.30;;;6.50;;
35518;SDS011;21627;48.216;16.482;2023-05-07T03:42:05;11.20;;;6.72;;
35518;SDS011;21627;48.216;16.482;2023-05-07T03:44:33;11.05;;;8.45;;
35518;SDS011;21627;48.216;16.482;2023-05-07T03:47:02;12.98;;;8.43;;
35518;SDS011;21627;48.216;16.482;2023-05-07T03:49:30;10.45;;;8.43;;
35518;SDS011;21627;48.216;16.482;2023-05-07T03:51:57;13.35;;;9.05;;
35518;SDS011;21627;48.216;16.482;2023-05-07T03:54:24;15.68;;;10.05;;
35518;SDS011;21627;48.216;16.482;2023-05-07T03:56:51;15.05;;;10.55;;
35518;SDS011;21627;48.216;16.482;2023-05-07T03:59:18;16.23;;;10.80;;
35518;SDS011;21627;48.216;16.482;2023-05-07T04:01:45;14.68;;;11.23;;
35518;SDS011;21627;48.216;16.482;2023-05-07T04:04:12;15.45;;;10.70;;
35518;SDS011;21627;48.216;16.482;2023-05-07T04:06:40;13.70;;;9.82;;
35518;SDS011;21627;48.216;16.482;2023-05-07T04:09:07;13.43;;;10.32;;
35518;SDS011;21627;48.216;16.482;2023-05-07T04:11:35;14.95;;;11.10;;
35518;SDS011;21627;48.216;16.482;2023-05-07T04:14:02;15.02;;;10.95;;
35518;SDS011;21627;48.216;16.482;2023-05-07T04:16:29;14.75;;;10.38;;
35518;SDS011;21627;48.216;16.482;2023-05-07T04:18:56;13.95;;;10.38;;
35518;SDS011;21627;48.216;16.482;2023-05-07T04:21:23;16.52;;;12.10;;
35518;SDS011;21627;48.216;16.482;2023-05-07T04:23:52;18.00;;;10.73;;
35518;SDS011;21627;48.216;16.482;2023-05-07T04:26:19;17.25;;;11.20;;
35518;SDS011;21627;48.216;16.482;2023-05-07T04:28:47;17.83;;;12.10;;
35518;SDS011;21627;48.216;16.482;2023-05-07T04:31:14;20.50;;;12.70;;
35518;SDS011;21627;48.216;16.482;2023-05-07T04:33:42;20.52;;;13.13;;
35518;SDS011;21627;48.216;16.482;2023-05-07T04:36:09;20.85;;;13.10;;
35518;SDS011;21627;48.216;16.482;2023-05-07T04:38:36;18.92;;;13.20;;
35518;SDS011;21627;48.216;16.482;2023-05-07T04:41:03;19.25;;;14.32;;
35518;SDS011;21627;48.216;16.482;2023-05-07T04:43:32;19.48;;;13.73;;
35518;SDS011;21627;48.216;16.482;2023-05-07T04:45:59;20.73;;;14.05;;
35518;SDS011;21627;48.216;16.482;2023-05-07T04:48:26;22.08;;;15.60;;
35518;SDS011;21627;48.216;16.482;2023-05-07T04:50:55;18.60;;;14.95;;
35518;SDS011;21627;48.216;16.482;2023-05-07T04:53:22;20.63;;;15.93;;
35518;SDS011;21627;48.216;16.482;2023-05-07T04:55:54;24.02;;;16.00;;
35518;SDS011;21627;48.216;16.482;2023-05-07T04:58:23;22.95;;;16.02;;
35518;SDS011;21627;48.216;16.482;2023-05-07T05:00:50;25.65;;;16.92;;
35518;SDS011;21627;48.216;16.482;2023-05-07T05:03:18;24.83;;;16.40;;
35518;SDS011;21627;48.216;16.482;2023-05-07T05:05:45;26.77;;;19.30;;
35518;SDS011;21627;48.216;16.482;2023-05-07T05:08:12;27.05;;;18.98;;
35518;SDS011;21627;48.216;16.482;2023-05-07T05:10:39;28.50;;;19.73;;
35518;SDS011;21627;48.216;16.482;2023-05-07T05:13:07;26.48;;;19.67;;
35518;SDS011;21627;48.216;16.482;2023-05-07T05:15:35;26.75;;;20.02;;
35518;SDS011;21627;48.216;16.482;2023-05-07T05:18:02;32.25;;;21.17;;
35518;SDS011;21627;48.216;16.482;2023-05-07T05:20:29;29.55;;;20.70;;
35518;SDS011;21627;48.216;16.482;2023-05-07T05:22:56;36.92;;;22.65;;
35518;SDS011;21627;48.216;16.482;2023-05-07T05:25:23;28.60;;;21.42;;
35518;SDS011;21627;48.216;16.482;2023-05-07T05:27:50;30.58;;;21.75;;
35518;SDS011;21627;48.216;16.482;2023-05-07T05:30:17;30.23;;;20.75;;
35518;SDS011;21627;48.216;16.482;2023-05-07T05:32:46;36.25;;;21.23;;
35518;SDS011;21627;48.216;16.482;2023-05-07T05:35:13;28.92;;;21.75;;
35518;SDS011;21627;48.216;16.482;2023-05-07T05:37:40;36.63;;;22.85;;
35518;SDS011;21627;48.216;16.482;2023-05-07T05:40:07;34.50;;;22.65;;
35518;SDS011;21627;48.216;16.482;2023-05-07T05:42:35;33.70;;;22.42;;
35518;SDS011;21627;48.216;16.482;2023-05-07T05:45:03;33.83;;;23.55;;
35518;SDS011;21627;48.216;16.482;2023-05-07T05:47:30;34.63;;;22.30;;
35518;SDS011;21627;48.216;16.482;2023-05-07T05:49:58;36.53;;;22.25;;
35518;SDS011;21627;48.216;16.482;2023-05-07T05:52:25;33.17;;;21.83;;
35518;SDS011;21627;48.216;16.482;2023-05-07T05:54:53;32.83;;;22.48;;
35518;SDS011;21627;48.216;16.482;2023-05-07T05:57:20;33.88;;;22.95;;
35518;SDS011;21627;48.216;16.482;2023-05-07T05:59:47;31.17;;;22.15;;
35518;SDS011;21627;48.216;16.482;2023-05-07T06:02:14;30.33;;;22.73;;
35518;SDS011;21627;48.216;16.482;2023-05-07T06:04:41;29.85;;;20.73;;
35518;SDS011;21627;48.216;16.482;2023-05-07T06:07:09;34.33;;;21.77;;
35518;SDS011;21627;48.216;16.482;2023-05-07T06:09:36;32.03;;;22.02;;
35518;SDS011;21627;48.216;16.482;2023-05-07T06:12:03;32.47;;;23.10;;
35518;SDS011;21627;48.216;16.482;2023-05-07T06:14:30;32.63;;;20.95;;
35518;SDS011;21627;48.216;16.482;2023-05-07T06:16:57;30.08;;;20.52;;
35518;SDS011;21627;48.216;16.482;2023-05-07T06:19:24;31.63;;;21.70;;
35518;SDS011;21627;48.216;16.482;2023-05-07T06:21:52;37.47;;;22.50;;
35518;SDS011;21627;48.216;16.482;2023-05-07T06:24:20;31.58;;;22.58;;
35518;SDS011;21627;48.216;16.482;2023-05-07T06:26:47;30.27;;;20.77;;
35518;SDS011;21627;48.216;16.482;2023-05-07T06:29:14;30.67;;;20.92;;
35518;SDS011;21627;48.216;16.482;2023-05-07T06:31:41;34.42;;;21.13;;
35518;SDS011;21627;48.216;16.482;2023-05-07T06:34:08;26.10;;;19.45;;
35518;SDS011;21627;48.216;16.482;2023-05-07T06:36:36;28.52;;;20.42;;
35518;SDS011;21627;48.216;16.482;2023-05-07T06:39:03;31.52;;;20.75;;
35518;SDS011;21627;48.216;16.482;2023-05-07T06:41:30;27.92;;;18.98;;
35518;SDS011;21627;48.216;16.482;2023-05-07T06:43:57;24.20;;;17.55;;
35518;SDS011;21627;48.216;16.482;2023-05-07T06:46:24;24.63;;;18.05;;
35518;SDS011;21627;48.216;16.482;2023-05-07T06:48:51;26.70;;;19.23;;
35518;SDS011;21627;48.216;16.482;2023-05-07T06:51:18;25.00;;;19.02;;
35518;SDS011;21627;48.216;16.482;2023-05-07T06:53:46;28.85;;;18.80;;
35518;SDS011;21627;48.216;16.482;2023-05-07T06:56:13;26.38;;;17.80;;
35518;SDS011;21627;48.216;16.482;2023-05-07T06:58:40;30.90;;;18.50;;
35518;SDS011;21627;48.216;16.482;2023-05-07T07:01:07;28.58;;;19.05;;
35518;SDS011;21627;48.216;16.482;2023-05-07T07:03:34;27.50;;;19.13;;
35518;SDS011;21627;48.216;16.482;2023-05-07T07:06:01;29.77;;;19.60;;
35518;SDS011;21627;48.216;16.482;2023-05-07T07:08:29;27.02;;;18.33;;
35518;SDS011;21627;48.216;16.482;2023-05-07T07:10:56;27.20;;;18.63;;
35518;SDS011;21627;48.216;16.482;2023-05-07T07:13:24;24.33;;;17.50;;
35518;SDS011;21627;48.216;16.482;2023-05-07T07:15:51;26.92;;;18.77;;
35518;SDS011;21627;48.216;16.482;2023-05-07T07:18:19;28.63;;;19.13;;
35518;SDS011;21627;48.216;16.482;2023-05-07T07:20:46;28.35;;;19.45;;
35518;SDS011;21627;48.216;16.482;2023-05-07T07:23:14;27.50;;;18.83;;
35518;SDS011;21627;48.216;16.482;2023-05-07T07:25:41;30.48;;;19.55;;
35518;SDS011;21627;48.216;16.482;2023-05-07T07:28:08;25.02;;;18.20;;
35518;SDS011;21627;48.216;16.482;2023-05-07T07:30:35;26.33;;;17.92;;
35518;SDS011;21627;48.216;16.482;2023-05-07T07:33:02;30.27;;;18.58;;
35518;SDS011;21627;48.216;16.482;2023-05-07T07:35:29;28.65;;;19.88;;
35518;SDS011;21627;48.216;16.482;2023-05-07T07:38:00;23.63;;;17.60;;
35518;SDS011;21627;48.216;16.482;2023-05-07T07:40:27;30.02;;;19.50;;
35518;SDS011;21627;48.216;16.482;2023-05-07T07:42:54;25.85;;;17.65;;
35518;SDS011;21627;48.216;16.482;2023-05-07T07:45:22;24.20;;;16.80;;
35518;SDS011;21627;48.216;16.482;2023-05-07T07:47:50;27.88;;;17.80;;
35518;SDS011;21627;48.216;16.482;2023-05-07T07:50:17;26.10;;;17.88;;
35518;SDS011;21627;48.216;16.482;2023-05-07T07:53:01;25.35;;;17.83;;
35518;SDS011;21627;48.216;16.482;2023-05-07T07:55:28;27.48;;;17.52;;
35518;SDS011;21627;48.216;16.482;2023-05-07T07:57:57;27.48;;;17.38;;
35518;SDS011;21627;48.216;16.482;2023-05-07T08:00:24;24.33;;;15.30;;
35518;SDS011;21627;48.216;16.482;2023-05-07T08:02:51;23.88;;;16.63;;
35518;SDS011;21627;48.216;16.482;2023-05-07T08:05:18;24.27;;;15.55;;
35518;SDS011;21627;48.216;16.482;2023-05-07T08:07:46;22.83;;;16.40;;
35518;SDS011;21627;48.216;16.482;2023-05-07T08:10:18;23.15;;;15.50;;
35518;SDS011;21627;48.216;16.482;2023-05-07T08:12:48;26.60;;;15.50;;
35518;SDS011;21627;48.216;16.482;2023-05-07T08:15:16;25.27;;;14.93;;
35518;SDS011;21627;48.216;16.482;2023-05-07T08:17:43;22.75;;;15.40;;
35518;SDS011;21627;48.216;16.482;2023-05-07T08:20:11;17.38;;;12.80;;
35518;SDS011;21627;48.216;16.482;2023-05-07T08:22:38;22.48;;;14.23;;
35518;SDS011;21627;48.216;16.482;2023-05-07T08:25:06;18.70;;;13.70;;
35518;SDS011;21627;48.216;16.482;2023-05-07T08:27:34;18.50;;;11.73;;
35518;SDS011;21627;48.216;16.482;2023-05-07T08:30:01;18.42;;;13.05;;
35518;SDS011;21627;48.216;16.482;2023-05-07T08:32:29;17.88;;;13.60;;
35518;SDS011;21627;48.216;16.482;2023-05-07T08:34:56;20.77;;;13.48;;
35518;SDS011;21627;48.216;16.482;2023-05-07T08:37:23;16.45;;;12.45;;
35518;SDS011;21627;48.216;16.482;2023-05-07T08:39:50;18.08;;;12.73;;
35518;SDS011;21627;48.216;16.482;2023-05-07T08:42:17;21.50;;;13.35;;
35518;SDS011;21627;48.216;16.482;2023-05-07T08:44:46;16.05;;;12.18;;
35518;SDS011;21627;48.216;16.482;2023-05-07T08:47:19;16.23;;;11.02;;
35518;SDS011;21627;48.216;16.482;2023-05-07T08:49:53;17.75;;;12.70;;
35518;SDS011;21627;48.216;16.482;2023-05-07T08:52:21;17.40;;;11.70;;
35518;SDS011;21627;48.216;16.482;2023-05-07T08:54:48;25.55;;;11.85;;
35518;SDS011;21627;48.216;16.482;2023-05-07T08:57:16;20.75;;;11.80;;
35518;SDS011;21627;48.216;16.482;2023-05-07T08:59:43;16.30;;;11.40;;
35518;SDS011;21627;48.216;16.482;2023-05-07T09:02:10;17.70;;;12.00;;
35518;SDS011;21627;48.216;16.482;2023-05-07T09:04:38;15.63;;;11.82;;
35518;SDS011;21627;48.216;16.482;2023-05-07T09:07:06;18.10;;;12.40;;
35518;SDS011;21627;48.216;16.482;2023-05-07T09:09:33;15.00;;;11.02;;
35518;SDS011;21627;48.216;16.482;2023-05-07T09:12:00;16.00;;;11.93;;
35518;SDS011;21627;48.216;16.482;2023-05-07T09:14:28;20.63;;;13.55;;
35518;SDS011;21627;48.216;16.482;2023-05-07T09:16:56;19.17;;;13.43;;
35518;SDS011;21627;48.216;16.482;2023-05-07T09:19:23;15.10;;;11.13;;
35518;SDS011;21627;48.216;16.482;2023-05-07T09:22:01;17.80;;;11.77;;
35518;SDS011;21627;48.216;16.482;2023-05-07T09:24:33;15.90;;;11.82;;
35518;SDS011;21627;48.216;16.482;2023-05-07T09:27:01;18.15;;;11.52;;
35518;SDS011;21627;48.216;16.482;2023-05-07T09:29:29;16.70;;;13.18;;
35518;SDS011;21627;48.216;16.482;2023-05-07T09:32:02;16.45;;;10.95;;
35518;SDS011;21627;48.216;16.482;2023-05-07T09:34:33;15.98;;;11.80;;
35518;SDS011;21627;48.216;16.482;2023-05-07T09:37:04;15.75;;;10.63;;
35518;SDS011;21627;48.216;16.482;2023-05-07T09:39:43;15.50;;;11.18;;
35518;SDS011;21627;48.216;16.482;2023-05-07T09:42:14;17.75;;;11.05;;
35518;SDS011;21627;48.216;16.482;2023-05-07T09:44:42;19.08;;;11.05;;
35518;SDS011;21627;48.216;16.482;2023-05-07T09:47:10;14.10;;;9.55;;
35518;SDS011;21627;48.216;16.482;2023-05-07T09:49:45;15.25;;;10.90;;
35518;SDS011;21627;48.216;16.482;2023-05-07T09:52:14;16.60;;;11.27;;
35518;SDS011;21627;48.216;16.482;2023-05-07T09:54:42;17.92;;;10.98;;
35518;SDS011;21627;48.216;16.482;2023-05-07T09:57:11;16.88;;;10.40;;
35518;SDS011;21627;48.216;16.482;2023-05-07T09:59:39;13.77;;;9.48;;
35518;SDS011;21627;48.216;16.482;2023-05-07T10:02:10;15.93;;;9.85;;
35518;SDS011;21627;48.216;16.482;2023-05-07T10:04:39;14.70;;;9.85;;
35518;SDS011;21627;48.216;16.482;2023-05-07T10:07:06;12.95;;;9.65;;
35518;SDS011;21627;48.216;16.482;2023-05-07T10:09:34;18.95;;;10.23;;
35518;SDS011;21627;48.216;16.482;2023-05-07T10:12:05;13.40;;;9.35;;
35518;SDS011;21627;48.216;16.482;2023-05-07T10:14:33;13.60;;;9.90;;
35518;SDS011;21627;48.216;16.482;2023-05-07T10:17:01;12.20;;;9.45;;
35518;SDS011;21627;48.216;16.482;2023-05-07T10:19:29;15.90;;;9.18;;
35518;SDS011;21627;48.216;16.482;2023-05-07T10:21:59;14.18;;;8.98;;
35518;SDS011;21627;48.216;16.482;2023-05-07T10:24:32;13.13;;;9.50;;
35518;SDS011;21627;48.216;16.482;2023-05-07T10:27:00;15.85;;;10.20;;
35518;SDS011;21627;48.216;16.482;2023-05-07T10:29:51;13.60;;;9.68;;
35518;SDS011;21627;48.216;16.482;2023-05-07T10:35:26;11.80;;;8.63;;
35518;SDS011;21627;48.216;16.482;2023-05-07T10:37:58;12.48;;;8.88;;
35518;SDS011;21627;48.216;16.482;2023-05-07T10:40:25;16.88;;;9.27;;
35518;SDS011;21627;48.216;16.482;2023-05-07T10:42:56;12.82;;;8.95;;
35518;SDS011;21627;48.216;16.482;2023-05-07T10:45:28;11.88;;;8.65;;
35518;SDS011;21627;48.216;16.482;2023-05-07T10:48:06;11.13;;;8.02;;
35518;SDS011;21627;48.216;16.482;2023-05-07T10:50:53;11.60;;;8.27;;
35518;SDS011;21627;48.216;16.482;2023-05-07T10:53:47;14.68;;;7.13;;
35518;SDS011;21627;48.216;16.482;2023-05-07T10:58:45;12.63;;;7.95;;
35518;SDS011;21627;48.216;16.482;2023-05-07T11:01:12;11.07;;;7.57;;
35518;SDS011;21627;48.216;16.482;2023-05-07T11:06:42;10.52;;;7.30;;
35518;SDS011;21627;48.216;16.482;2023-05-07T11:15:11;12.25;;;7.50;;
35518;SDS011;21627;48.216;16.482;2023-05-07T11:17:58;10.65;;;8.02;;
35518;SDS011;21627;48.216;16.482;2023-05-07T11:26:07;9.32;;;6.65;;
35518;SDS011;21627;48.216;16.482;2023-05-07T11:28:38;10.10;;;7.13;;
35518;SDS011;21627;48.216;16.482;2023-05-07T11:31:08;10.88;;;7.03;;
35518;SDS011;21627;48.216;16.482;2023-05-07T11:33:37;15.13;;;7.47;;
35518;SDS011;21627;48.216;16.482;2023-05-07T11:36:04;8.40;;;6.45;;
35518;SDS011;21627;48.216;16.482;2023-05-07T11:38:35;8.77;;;6.10;;
35518;SDS011;21627;48.216;16.482;2023-05-07T11:41:03;7.57;;;5.43;;
35518;SDS011;21627;48.216;16.482;2023-05-07T11:43:31;10.18;;;6.57;;
35518;SDS011;21627;48.216;16.482;2023-05-07T11:46:09;12.23;;;6.57;;
35518;SDS011;21627;48.216;16.482;2023-05-07T11:48:38;9.23;;;6.43;;
35518;SDS011;21627;48.216;16.482;2023-05-07T11:51:06;9.90;;;6.22;;
35518;SDS011;21627;48.216;16.482;2023-05-07T11:53:41;8.30;;;6.05;;
35518;SDS011;21627;48.216;16.482;2023-05-07T11:56:12;8.63;;;5.95;;
35518;SDS011;21627;48.216;16.482;2023-05-07T11:58:42;11.00;;;6.53;;
35518;SDS011;21627;48.216;16.482;2023-05-07T12:01:12;8.80;;;6.50;;
35518;SDS011;21627;48.216;16.482;2023-05-07T12:03:43;8.38;;;6.63;;
35518;SDS011;21627;48.216;16.482;2023-05-07T12:06:13;6.93;;;5.60;;
35518;SDS011;21627;48.216;16.482;2023-05-07T12:08:43;9.35;;;6.35;;
35518;SDS011;21627;48.216;16.482;2023-05-07T12:11:14;10.70;;;6.78;;
35518;SDS011;21627;48.216;16.482;2023-05-07T12:13:48;8.45;;;6.45;;
35518;SDS011;21627;48.216;16.482;2023-05-07T12:16:15;8.68;;;6.13;;
35518;SDS011;21627;48.216;16.482;2023-05-07T12:18:42;12.95;;;7.15;;
35518;SDS011;21627;48.216;16.482;2023-05-07T12:21:13;10.27;;;6.85;;
35518;SDS011;21627;48.216;16.482;2023-05-07T12:23:40;11.27;;;6.60;;
35518;SDS011;21627;48.216;16.482;2023-05-07T12:26:07;9.95;;;6.40;;
35518;SDS011;21627;48.216;16.482;2023-05-07T12:28:38;9.52;;;6.78;;
35518;SDS011;21627;48.216;16.482;2023-05-07T12:31:05;8.50;;;6.28;;
35518;SDS011;21627;48.216;16.482;2023-05-07T12:33:34;8.90;;;6.60;;
35518;SDS011;21627;48.216;16.482;2023-05-07T12:36:03;8.20;;;6.20;;
35518;SDS011;21627;48.216;16.482;2023-05-07T12:38:37;7.40;;;5.65;;
35518;SDS011;21627;48.216;16.482;2023-05-07T12:41:05;8.15;;;5.93;;
35518;SDS011;21627;48.216;16.482;2023-05-07T12:43:34;9.40;;;5.70;;
35518;SDS011;21627;48.216;16.482;2023-05-07T12:46:06;7.90;;;5.85;;
35518;SDS011;21627;48.216;16.482;2023-05-07T12:48:36;8.25;;;5.53;;
35518;SDS011;21627;48.216;16.482;2023-05-07T12:51:05;12.52;;;6.70;;
35518;SDS011;21627;48.216;16.482;2023-05-07T12:53:33;5.72;;;4.50;;
35518;SDS011;21627;48.216;16.482;2023-05-07T12:56:08;6.32;;;5.00;;
35518;SDS011;21627;48.216;16.482;2023-05-07T12:58:36;10.07;;;5.78;;
35518;SDS011;21627;48.216;16.482;2023-05-07T13:01:07;9.43;;;4.78;;
35518;SDS011;21627;48.216;16.482;2023-05-07T13:03:37;6.72;;;4.53;;
35518;SDS011;21627;48.216;16.482;2023-05-07T13:06:06;8.30;;;4.45;;
35518;SDS011;21627;48.216;16.482;2023-05-07T13:08:37;6.13;;;4.80;;
35518;SDS011;21627;48.216;16.482;2023-05-07T13:11:07;6.18;;;4.43;;
35518;SDS011;21627;48.216;16.482;2023-05-07T13:13:37;6.97;;;5.10;;
35518;SDS011;21627;48.216;16.482;2023-05-07T13:16:07;8.10;;;5.13;;
35518;SDS011;21627;48.216;16.482;2023-05-07T13:18:37;6.70;;;4.28;;
35518;SDS011;21627;48.216;16.482;2023-05-07T13:21:07;6.55;;;4.40;;
35518;SDS011;21627;48.216;16.482;2023-05-07T13:23:37;7.38;;;5.15;;
35518;SDS011;21627;48.216;16.482;2023-05-07T13:26:05;5.82;;;4.50;;
35518;SDS011;21627;48.216;16.482;2023-05-07T13:28:51;8.25;;;4.88;;
35518;SDS011;21627;48.216;16.482;2023-05-07T13:31:20;7.78;;;4.85;;
35518;SDS011;21627;48.216;16.482;2023-05-07T13:33:47;7.38;;;4.90;;
35518;SDS011;21627;48.216;16.482;2023-05-07T13:36:14;5.82;;;3.80;;
35518;SDS011;21627;48.216;16.482;2023-05-07T13:38:41;7.63;;;4.93;;
35518;SDS011;21627;48.216;16.482;2023-05-07T13:41:09;6.45;;;4.13;;
35518;SDS011;21627;48.216;16.482;2023-05-07T13:43:36;4.85;;;4.00;;
35518;SDS011;21627;48.216;16.482;2023-05-07T13:46:03;6.28;;;3.83;;
35518;SDS011;21627;48.216;16.482;2023-05-07T13:48:30;6.07;;;4.28;;
35518;SDS011;21627;48.216;16.482;2023-05-07T13:50:57;8.93;;;4.50;;
35518;SDS011;21627;48.216;16.482;2023-05-07T13:53:25;4.60;;;3.80;;
35518;SDS011;21627;48.216;16.482;2023-05-07T13:55:52;5.32;;;3.70;;
35518;SDS011;21627;48.216;16.482;2023-05-07T13:58:19;6.28;;;4.28;;
35518;SDS011;21627;48.216;16.482;2023-05-07T14:00:46;5.90;;;3.78;;
35518;SDS011;21627;48.216;16.482;2023-05-07T14:03:13;6.18;;;3.95;;
35518;SDS011;21627;48.216;16.482;2023-05-07T14:05:41;6.43;;;4.07;;
35518;SDS011;21627;48.216;16.482;2023-05-07T14:08:08;5.57;;;3.88;;
35518;SDS011;21627;48.216;16.482;2023-05-07T14:10:35;4.47;;;3.70;;
35518;SDS011;21627;48.216;16.482;2023-05-07T14:13:02;6.97;;;4.63;;
35518;SDS011;21627;48.216;16.482;2023-05-07T14:15:29;7.38;;;4.03;;
35518;SDS011;21627;48.216;16.482;2023-05-07T14:18:01;6.03;;;3.10;;
35518;SDS011;21627;48.216;16.482;2023-05-07T14:20:28;5.15;;;3.60;;
35518;SDS011;21627;48.216;16.482;2023-05-07T14:22:57;5.90;;;3.17;;
35518;SDS011;21627;48.216;16.482;2023-05-07T14:25:24;4.57;;;3.20;;
35518;SDS011;21627;48.216;16.482;2023-05-07T14:27:51;3.33;;;2.60;;
35518;SDS011;21627;48.216;16.482;2023-05-07T14:30:18;5.05;;;2.45;;
35518;SDS011;21627;48.216;16.482;2023-05-07T14:32:45;3.65;;;2.60;;
35518;SDS011;21627;48.216;16.482;2023-05-07T14:35:12;4.65;;;3.08;;
35518;SDS011;21627;48.216;16.482;2023-05-07T14:37:40;5.03;;;2.80;;
35518;SDS011;21627;48.216;16.482;2023-05-07T14:40:07;3.88;;;3.03;;
35518;SDS011;21627;48.216;16.482;2023-05-07T14:42:36;4.47;;;2.97;;
35518;SDS011;21627;48.216;16.482;2023-05-07T14:45:03;2.80;;;2.28;;
35518;SDS011;21627;48.216;16.482;2023-05-07T14:47:30;4.53;;;3.10;;